sensor_id;sensor_type;location;lat;lon;timestamp;P1;durP1;ratioP1;P2;durP2;ratioP2
67965;SDS011;54749;47.850;9.002;2022-12-20T00:01:33;39.03;;;13.80;;
67965;SDS011;54749;47.850;9.002;2022-12-20T00:04:01;38.13;;;13.67;;
67965;SDS011;54749;47.850;9.002;2022-12-20T00:06:34;37.13;;;13.25;;
67965;SDS011;54749;47.850;9.002;2022-12-20T00:09:03;38.88;;;13.43;;
67965;SDS011;54749;47.850;9.002;2022-12-20T00:11:32;38.20;;;14.07;;
67965;SDS011;54749;47.850;9.002;2022-12-20T00:13:59;42.33;;;16.73;;
67965;SDS011;54749;47.850;9.002;2022-12-20T00:16:27;37.07;;;14.00;;
67965;SDS011;54749;47.850;9.002;2022-12-20T00:18:56;39.38;;;12.77;;
67965;SDS011;54749;47.850;9.002;2022-12-20T00:21:25;38.28;;;13.85;;
67965;SDS011;54749;47.850;9.002;2022-12-20T00:23:53;33.50;;;12.32;;
67965;SDS011;54749;47.850;9.002;2022-12-20T00:26:26;31.13;;;11.35;;
67965;SDS011;54749;47.850;9.002;2022-12-20T00:28:54;33.43;;;11.47;;
67965;SDS011;54749;47.850;9.002;2022-12-20T00:31:23;35.72;;;12.85;;
67965;SDS011;54749;47.850;9.002;2022-12-20T00:33:52;32.20;;;10.48;;
67965;SDS011;54749;47.850;9.002;2022-12-20T00:36:21;32.45;;;11.80;;
67965;SDS011;54749;47.850;9.002;2022-12-20T00:38:49;34.40;;;13.32;;
67965;SDS011;54749;47.850;9.002;2022-12-20T00:41:19;32.53;;;11.40;;
67965;SDS011;54749;47.850;9.002;2022-12-20T00:43:49;35.95;;;12.73;;
67965;SDS011;54749;47.850;9.002;2022-12-20T00:46:17;39.03;;;14.55;;
67965;SDS011;54749;47.850;9.002;2022-12-20T00:48:46;30.75;;;12.00;;
67965;SDS011;54749;47.850;9.002;2022-12-20T00:51:17;35.72;;;13.02;;
67965;SDS011;54749;47.850;9.002;2022-12-20T00:53:47;49.83;;;17.53;;
67965;SDS011;54749;47.850;9.002;2022-12-20T00:56:15;51.00;;;19.02;;
67965;SDS011;54749;47.850;9.002;2022-12-20T00:58:43;45.42;;;17.60;;
67965;SDS011;54749;47.850;9.002;2022-12-20T01:01:27;39.00;;;13.68;;
67965;SDS011;54749;47.850;9.002;2022-12-20T01:03:56;30.73;;;10.48;;
67965;SDS011;54749;47.850;9.002;2022-12-20T01:06:23;25.57;;;8.43;;
67965;SDS011;54749;47.850;9.002;2022-12-20T01:08:51;30.35;;;10.70;;
67965;SDS011;54749;47.850;9.002;2022-12-20T01:11:21;29.52;;;10.25;;
67965;SDS011;54749;47.850;9.002;2022-12-20T01:13:53;34.03;;;11.98;;
67965;SDS011;54749;47.850;9.002;2022-12-20T01:16:23;27.08;;;11.23;;
67965;SDS011;54749;47.850;9.002;2022-12-20T01:18:53;46.83;;;15.73;;
67965;SDS011;54749;47.850;9.002;2022-12-20T01:21:21;37.15;;;13.45;;
67965;SDS011;54749;47.850;9.002;2022-12-20T01:23:50;31.90;;;11.35;;
67965;SDS011;54749;47.850;9.002;2022-12-20T01:26:19;29.33;;;10.80;;
67965;SDS011;54749;47.850;9.002;2022-12-20T01:28:50;31.17;;;10.70;;
67965;SDS011;54749;47.850;9.002;2022-12-20T01:31:19;27.73;;;10.27;;
67965;SDS011;54749;47.850;9.002;2022-12-20T01:33:47;23.20;;;9.05;;
67965;SDS011;54749;47.850;9.002;2022-12-20T01:36:16;40.05;;;14.07;;
67965;SDS011;54749;47.850;9.002;2022-12-20T01:38:45;37.72;;;13.95;;
67965;SDS011;54749;47.850;9.002;2022-12-20T01:41:14;30.58;;;12.98;;
67965;SDS011;54749;47.850;9.002;2022-12-20T01:46:19;38.65;;;12.60;;
67965;SDS011;54749;47.850;9.002;2022-12-20T01:48:48;28.10;;;10.02;;
67965;SDS011;54749;47.850;9.002;2022-12-20T01:51:19;26.98;;;10.10;;
67965;SDS011;54749;47.850;9.002;2022-12-20T01:53:47;33.72;;;12.93;;
67965;SDS011;54749;47.850;9.002;2022-12-20T01:56:21;27.27;;;10.23;;
67965;SDS011;54749;47.850;9.002;2022-12-20T01:58:48;48.72;;;17.92;;
67965;SDS011;54749;47.850;9.002;2022-12-20T02:01:20;51.72;;;18.48;;
67965;SDS011;54749;47.850;9.002;2022-12-20T02:03:49;38.65;;;13.55;;
67965;SDS011;54749;47.850;9.002;2022-12-20T02:06:19;42.30;;;14.75;;
67965;SDS011;54749;47.850;9.002;2022-12-20T02:08:49;37.27;;;14.20;;
67965;SDS011;54749;47.850;9.002;2022-12-20T02:11:23;53.13;;;18.63;;
67965;SDS011;54749;47.850;9.002;2022-12-20T02:17:01;55.17;;;20.25;;
67965;SDS011;54749;47.850;9.002;2022-12-20T02:30:27;36.03;;;12.43;;
67965;SDS011;54749;47.850;9.002;2022-12-20T02:33:01;34.08;;;11.27;;
67965;SDS011;54749;47.850;9.002;2022-12-20T02:35:32;31.30;;;11.70;;
67965;SDS011;54749;47.850;9.002;2022-12-20T02:38:04;45.65;;;14.68;;
67965;SDS011;54749;47.850;9.002;2022-12-20T02:40:57;50.88;;;17.40;;
67965;SDS011;54749;47.850;9.002;2022-12-20T02:43:27;55.03;;;19.70;;
67965;SDS011;54749;47.850;9.002;2022-12-20T02:46:15;55.58;;;17.77;;
67965;SDS011;54749;47.850;9.002;2022-12-20T02:48:45;54.20;;;17.80;;
67965;SDS011;54749;47.850;9.002;2022-12-20T02:51:14;37.10;;;12.90;;
67965;SDS011;54749;47.850;9.002;2022-12-20T02:53:44;30.58;;;11.25;;
67965;SDS011;54749;47.850;9.002;2022-12-20T02:56:17;33.05;;;11.57;;
67965;SDS011;54749;47.850;9.002;2022-12-20T02:58:47;27.55;;;10.07;;
67965;SDS011;54749;47.850;9.002;2022-12-20T03:01:28;26.67;;;9.43;;
67965;SDS011;54749;47.850;9.002;2022-12-20T03:03:59;26.20;;;9.73;;
67965;SDS011;54749;47.850;9.002;2022-12-20T03:06:27;32.90;;;11.02;;
67965;SDS011;54749;47.850;9.002;2022-12-20T03:08:56;33.70;;;12.05;;
67965;SDS011;54749;47.850;9.002;2022-12-20T03:11:26;50.33;;;17.58;;
67965;SDS011;54749;47.850;9.002;2022-12-20T03:13:54;34.70;;;11.90;;
67965;SDS011;54749;47.850;9.002;2022-12-20T03:16:20;31.40;;;13.05;;
67965;SDS011;54749;47.850;9.002;2022-12-20T03:18:48;36.17;;;13.75;;
67965;SDS011;54749;47.850;9.002;2022-12-20T03:21:15;31.42;;;13.10;;
67965;SDS011;54749;47.850;9.002;2022-12-20T03:23:42;50.40;;;19.05;;
67965;SDS011;54749;47.850;9.002;2022-12-20T03:26:09;36.30;;;14.53;;
67965;SDS011;54749;47.850;9.002;2022-12-20T03:28:41;39.65;;;14.13;;
67965;SDS011;54749;47.850;9.002;2022-12-20T03:31:11;28.35;;;10.30;;
67965;SDS011;54749;47.850;9.002;2022-12-20T03:33:45;32.50;;;11.88;;
67965;SDS011;54749;47.850;9.002;2022-12-20T03:36:12;47.22;;;17.63;;
67965;SDS011;54749;47.850;9.002;2022-12-20T03:38:41;53.30;;;18.20;;
67965;SDS011;54749;47.850;9.002;2022-12-20T03:41:08;49.17;;;18.35;;
67965;SDS011;54749;47.850;9.002;2022-12-20T03:43:35;48.75;;;17.83;;
67965;SDS011;54749;47.850;9.002;2022-12-20T03:46:04;60.40;;;18.92;;
67965;SDS011;54749;47.850;9.002;2022-12-20T03:48:37;54.83;;;19.42;;
67965;SDS011;54749;47.850;9.002;2022-12-20T03:51:04;46.47;;;15.47;;
67965;SDS011;54749;47.850;9.002;2022-12-20T03:53:32;56.35;;;19.02;;
67965;SDS011;54749;47.850;9.002;2022-12-20T03:55:59;55.60;;;18.52;;
67965;SDS011;54749;47.850;9.002;2022-12-20T03:58:27;41.88;;;15.05;;
67965;SDS011;54749;47.850;9.002;2022-12-20T04:00:55;35.22;;;12.57;;
67965;SDS011;54749;47.850;9.002;2022-12-20T04:03:43;33.13;;;11.00;;
67965;SDS011;54749;47.850;9.002;2022-12-20T04:06:10;32.35;;;11.70;;
67965;SDS011;54749;47.850;9.002;2022-12-20T04:08:37;29.67;;;9.35;;
67965;SDS011;54749;47.850;9.002;2022-12-20T04:11:04;28.63;;;10.25;;
67965;SDS011;54749;47.850;9.002;2022-12-20T04:14:19;28.05;;;10.32;;
67965;SDS011;54749;47.850;9.002;2022-12-20T04:16:47;24.63;;;8.37;;
67965;SDS011;54749;47.850;9.002;2022-12-20T04:19:17;29.13;;;9.15;;
67965;SDS011;54749;47.850;9.002;2022-12-20T04:21:45;23.08;;;8.63;;
67965;SDS011;54749;47.850;9.002;2022-12-20T04:24:15;25.05;;;8.68;;
67965;SDS011;54749;47.850;9.002;2022-12-20T04:26:46;25.10;;;8.52;;
67965;SDS011;54749;47.850;9.002;2022-12-20T04:29:16;27.97;;;9.57;;
67965;SDS011;54749;47.850;9.002;2022-12-20T04:31:44;28.83;;;10.10;;
67965;SDS011;54749;47.850;9.002;2022-12-20T04:34:11;55.08;;;17.92;;
67965;SDS011;54749;47.850;9.002;2022-12-20T04:36:38;55.53;;;18.92;;
67965;SDS011;54749;47.850;9.002;2022-12-20T04:39:12;35.15;;;13.85;;
67965;SDS011;54749;47.850;9.002;2022-12-20T04:42:00;28.47;;;10.43;;
67965;SDS011;54749;47.850;9.002;2022-12-20T04:44:28;29.10;;;11.80;;
67965;SDS011;54749;47.850;9.002;2022-12-20T04:46:55;30.77;;;12.05;;
67965;SDS011;54749;47.850;9.002;2022-12-20T04:49:22;28.17;;;11.00;;
67965;SDS011;54749;47.850;9.002;2022-12-20T04:51:49;30.25;;;12.02;;
67965;SDS011;54749;47.850;9.002;2022-12-20T04:54:17;30.17;;;11.27;;
67965;SDS011;54749;47.850;9.002;2022-12-20T04:56:56;36.35;;;12.25;;
67965;SDS011;54749;47.850;9.002;2022-12-20T04:59:23;49.40;;;16.13;;
67965;SDS011;54749;47.850;9.002;2022-12-20T05:01:52;41.83;;;13.93;;
67965;SDS011;54749;47.850;9.002;2022-12-20T05:04:43;35.85;;;12.40;;
67965;SDS011;54749;47.850;9.002;2022-12-20T05:07:10;36.47;;;13.23;;
67965;SDS011;54749;47.850;9.002;2022-12-20T05:09:39;38.97;;;14.50;;
67965;SDS011;54749;47.850;9.002;2022-12-20T05:12:06;39.80;;;14.55;;
67965;SDS011;54749;47.850;9.002;2022-12-20T05:14:34;35.63;;;14.27;;
67965;SDS011;54749;47.850;9.002;2022-12-20T05:17:01;40.55;;;14.68;;
67965;SDS011;54749;47.850;9.002;2022-12-20T05:19:28;41.90;;;15.30;;
67965;SDS011;54749;47.850;9.002;2022-12-20T05:21:55;47.50;;;17.38;;
67965;SDS011;54749;47.850;9.002;2022-12-20T05:24:53;40.25;;;16.48;;
67965;SDS011;54749;47.850;9.002;2022-12-20T05:27:40;46.22;;;15.90;;
67965;SDS011;54749;47.850;9.002;2022-12-20T05:30:07;38.70;;;15.10;;
67965;SDS011;54749;47.850;9.002;2022-12-20T05:32:35;40.93;;;15.13;;
67965;SDS011;54749;47.850;9.002;2022-12-20T05:35:02;30.83;;;11.40;;
67965;SDS011;54749;47.850;9.002;2022-12-20T05:37:30;43.53;;;16.27;;
67965;SDS011;54749;47.850;9.002;2022-12-20T05:40:05;47.65;;;17.05;;
67965;SDS011;54749;47.850;9.002;2022-12-20T05:42:33;49.45;;;19.00;;
67965;SDS011;54749;47.850;9.002;2022-12-20T05:45:01;51.23;;;17.77;;
67965;SDS011;54749;47.850;9.002;2022-12-20T05:47:33;40.75;;;15.10;;
67965;SDS011;54749;47.850;9.002;2022-12-20T05:50:06;38.40;;;14.77;;
67965;SDS011;54749;47.850;9.002;2022-12-20T05:53:02;27.73;;;10.50;;
67965;SDS011;54749;47.850;9.002;2022-12-20T05:55:41;26.85;;;9.73;;
67965;SDS011;54749;47.850;9.002;2022-12-20T05:58:10;32.13;;;13.20;;
67965;SDS011;54749;47.850;9.002;2022-12-20T06:00:49;37.03;;;14.27;;
67965;SDS011;54749;47.850;9.002;2022-12-20T06:03:16;42.83;;;14.98;;
67965;SDS011;54749;47.850;9.002;2022-12-20T06:05:44;36.17;;;13.90;;
67965;SDS011;54749;47.850;9.002;2022-12-20T06:08:16;29.60;;;10.10;;
67965;SDS011;54749;47.850;9.002;2022-12-20T06:10:44;24.93;;;9.83;;
67965;SDS011;54749;47.850;9.002;2022-12-20T06:13:13;29.63;;;9.27;;
67965;SDS011;54749;47.850;9.002;2022-12-20T06:15:41;22.83;;;8.93;;
67965;SDS011;54749;47.850;9.002;2022-12-20T06:18:08;30.73;;;10.77;;
67965;SDS011;54749;47.850;9.002;2022-12-20T06:20:37;28.90;;;10.65;;
67965;SDS011;54749;47.850;9.002;2022-12-20T06:23:05;32.57;;;11.73;;
67965;SDS011;54749;47.850;9.002;2022-12-20T06:25:39;26.13;;;9.05;;
67965;SDS011;54749;47.850;9.002;2022-12-20T06:28:06;25.15;;;9.65;;
67965;SDS011;54749;47.850;9.002;2022-12-20T06:30:34;26.35;;;9.10;;
67965;SDS011;54749;47.850;9.002;2022-12-20T06:33:05;27.48;;;9.13;;
67965;SDS011;54749;47.850;9.002;2022-12-20T06:35:33;22.90;;;8.10;;
67965;SDS011;54749;47.850;9.002;2022-12-20T06:38:00;43.58;;;15.95;;
67965;SDS011;54749;47.850;9.002;2022-12-20T06:40:30;31.95;;;11.90;;
67965;SDS011;54749;47.850;9.002;2022-12-20T06:42:59;30.67;;;10.07;;
67965;SDS011;54749;47.850;9.002;2022-12-20T06:45:27;23.13;;;9.30;;
67965;SDS011;54749;47.850;9.002;2022-12-20T06:47:56;22.73;;;8.40;;
67965;SDS011;54749;47.850;9.002;2022-12-20T06:50:24;22.92;;;8.80;;
67965;SDS011;54749;47.850;9.002;2022-12-20T06:52:51;35.30;;;13.63;;
67965;SDS011;54749;47.850;9.002;2022-12-20T06:55:19;24.38;;;9.32;;
67965;SDS011;54749;47.850;9.002;2022-12-20T06:57:46;28.90;;;11.05;;
67965;SDS011;54749;47.850;9.002;2022-12-20T07:00:14;27.07;;;10.10;;
67965;SDS011;54749;47.850;9.002;2022-12-20T07:02:42;39.42;;;14.80;;
67965;SDS011;54749;47.850;9.002;2022-12-20T07:05:09;39.53;;;14.90;;
67965;SDS011;54749;47.850;9.002;2022-12-20T07:07:36;35.65;;;13.43;;
67965;SDS011;54749;47.850;9.002;2022-12-20T07:10:10;32.22;;;12.25;;
67965;SDS011;54749;47.850;9.002;2022-12-20T07:12:37;26.23;;;9.53;;
67965;SDS011;54749;47.850;9.002;2022-12-20T07:15:13;28.90;;;10.70;;
67965;SDS011;54749;47.850;9.002;2022-12-20T07:17:40;27.85;;;10.55;;
67965;SDS011;54749;47.850;9.002;2022-12-20T07:20:09;29.83;;;11.75;;
67965;SDS011;54749;47.850;9.002;2022-12-20T07:22:39;33.55;;;12.65;;
67965;SDS011;54749;47.850;9.002;2022-12-20T07:25:07;31.43;;;11.23;;
67965;SDS011;54749;47.850;9.002;2022-12-20T07:27:35;27.23;;;10.80;;
67965;SDS011;54749;47.850;9.002;2022-12-20T07:30:02;28.83;;;10.90;;
67965;SDS011;54749;47.850;9.002;2022-12-20T07:32:30;32.22;;;11.30;;
67965;SDS011;54749;47.850;9.002;2022-12-20T07:34:58;31.92;;;11.43;;
67965;SDS011;54749;47.850;9.002;2022-12-20T07:37:26;27.50;;;9.63;;
67965;SDS011;54749;47.850;9.002;2022-12-20T07:39:54;34.28;;;12.35;;
67965;SDS011;54749;47.850;9.002;2022-12-20T07:42:22;36.92;;;13.75;;
67965;SDS011;54749;47.850;9.002;2022-12-20T07:44:53;28.45;;;11.50;;
67965;SDS011;54749;47.850;9.002;2022-12-20T07:47:19;35.72;;;13.43;;
67965;SDS011;54749;47.850;9.002;2022-12-20T07:49:47;39.27;;;14.10;;
67965;SDS011;54749;47.850;9.002;2022-12-20T07:52:15;36.72;;;14.30;;
67965;SDS011;54749;47.850;9.002;2022-12-20T07:54:48;52.95;;;19.67;;
67965;SDS011;54749;47.850;9.002;2022-12-20T07:57:22;56.10;;;20.88;;
67965;SDS011;54749;47.850;9.002;2022-12-20T07:59:53;43.28;;;17.85;;
67965;SDS011;54749;47.850;9.002;2022-12-20T08:02:30;50.77;;;20.13;;
67965;SDS011;54749;47.850;9.002;2022-12-20T08:05:02;49.80;;;18.85;;
67965;SDS011;54749;47.850;9.002;2022-12-20T08:07:30;50.83;;;19.35;;
67965;SDS011;54749;47.850;9.002;2022-12-20T08:09:58;34.08;;;13.23;;
67965;SDS011;54749;47.850;9.002;2022-12-20T08:12:25;31.13;;;12.80;;
67965;SDS011;54749;47.850;9.002;2022-12-20T08:14:56;35.60;;;13.20;;
67965;SDS011;54749;47.850;9.002;2022-12-20T08:17:24;27.95;;;12.13;;
67965;SDS011;54749;47.850;9.002;2022-12-20T08:19:51;32.70;;;13.73;;
67965;SDS011;54749;47.850;9.002;2022-12-20T08:22:18;35.08;;;12.93;;
67965;SDS011;54749;47.850;9.002;2022-12-20T08:24:45;48.53;;;18.45;;
67965;SDS011;54749;47.850;9.002;2022-12-20T08:27:12;36.33;;;14.50;;
67965;SDS011;54749;47.850;9.002;2022-12-20T08:29:41;50.17;;;18.88;;
67965;SDS011;54749;47.850;9.002;2022-12-20T08:32:07;50.40;;;18.85;;
67965;SDS011;54749;47.850;9.002;2022-12-20T08:34:35;46.92;;;17.80;;
67965;SDS011;54749;47.850;9.002;2022-12-20T08:37:02;44.15;;;19.15;;
67965;SDS011;54749;47.850;9.002;2022-12-20T08:39:38;37.78;;;16.52;;
67965;SDS011;54749;47.850;9.002;2022-12-20T08:42:05;34.43;;;15.83;;
67965;SDS011;54749;47.850;9.002;2022-12-20T08:44:32;41.42;;;16.17;;
67965;SDS011;54749;47.850;9.002;2022-12-20T08:46:59;35.50;;;14.93;;
67965;SDS011;54749;47.850;9.002;2022-12-20T08:49:26;41.25;;;17.05;;
67965;SDS011;54749;47.850;9.002;2022-12-20T08:51:53;53.85;;;21.98;;
67965;SDS011;54749;47.850;9.002;2022-12-20T08:54:20;61.37;;;23.67;;
67965;SDS011;54749;47.850;9.002;2022-12-20T08:56:47;60.17;;;23.48;;
67965;SDS011;54749;47.850;9.002;2022-12-20T08:59:14;66.93;;;24.88;;
67965;SDS011;54749;47.850;9.002;2022-12-20T09:01:44;56.92;;;22.92;;
67965;SDS011;54749;47.850;9.002;2022-12-20T09:04:11;67.78;;;24.05;;
67965;SDS011;54749;47.850;9.002;2022-12-20T09:06:38;51.33;;;19.23;;
67965;SDS011;54749;47.850;9.002;2022-12-20T09:09:06;51.22;;;19.73;;
67965;SDS011;54749;47.850;9.002;2022-12-20T09:11:33;42.60;;;16.38;;
67965;SDS011;54749;47.850;9.002;2022-12-20T09:14:00;49.60;;;20.02;;
67965;SDS011;54749;47.850;9.002;2022-12-20T09:16:28;36.22;;;15.48;;
67965;SDS011;54749;47.850;9.002;2022-12-20T09:18:58;38.00;;;15.60;;
67965;SDS011;54749;47.850;9.002;2022-12-20T09:21:32;37.88;;;15.85;;
67965;SDS011;54749;47.850;9.002;2022-12-20T09:24:00;46.08;;;18.90;;
67965;SDS011;54749;47.850;9.002;2022-12-20T09:26:27;37.35;;;15.38;;
67965;SDS011;54749;47.850;9.002;2022-12-20T09:28:54;42.35;;;17.98;;
67965;SDS011;54749;47.850;9.002;2022-12-20T09:31:22;58.70;;;23.40;;
67965;SDS011;54749;47.850;9.002;2022-12-20T09:33:54;55.90;;;23.05;;
67965;SDS011;54749;47.850;9.002;2022-12-20T09:36:24;55.58;;;22.42;;
67965;SDS011;54749;47.850;9.002;2022-12-20T09:38:52;45.97;;;18.10;;
67965;SDS011;54749;47.850;9.002;2022-12-20T09:43:59;37.30;;;17.13;;
67965;SDS011;54749;47.850;9.002;2022-12-20T09:46:29;36.85;;;16.52;;
67965;SDS011;54749;47.850;9.002;2022-12-20T09:48:57;39.50;;;16.42;;
67965;SDS011;54749;47.850;9.002;2022-12-20T10:00:01;27.38;;;12.65;;
67965;SDS011;54749;47.850;9.002;2022-12-20T10:02:29;30.05;;;13.30;;
67965;SDS011;54749;47.850;9.002;2022-12-20T10:05:19;29.10;;;12.90;;
67965;SDS011;54749;47.850;9.002;2022-12-20T10:08:12;36.65;;;17.05;;
67965;SDS011;54749;47.850;9.002;2022-12-20T10:14:24;35.03;;;13.48;;
67965;SDS011;54749;47.850;9.002;2022-12-20T10:25:30;38.17;;;17.33;;
67965;SDS011;54749;47.850;9.002;2022-12-20T10:28:03;45.63;;;19.52;;
67965;SDS011;54749;47.850;9.002;2022-12-20T10:30:37;45.03;;;20.15;;
67965;SDS011;54749;47.850;9.002;2022-12-20T10:33:07;38.35;;;16.70;;
67965;SDS011;54749;47.850;9.002;2022-12-20T10:35:43;34.33;;;14.32;;
67965;SDS011;54749;47.850;9.002;2022-12-20T10:38:12;31.53;;;14.37;;
67965;SDS011;54749;47.850;9.002;2022-12-20T10:40:44;31.60;;;15.30;;
67965;SDS011;54749;47.850;9.002;2022-12-20T10:43:46;34.03;;;14.32;;
67965;SDS011;54749;47.850;9.002;2022-12-20T10:46:15;43.03;;;17.05;;
67965;SDS011;54749;47.850;9.002;2022-12-20T10:48:44;34.95;;;15.02;;
67965;SDS011;54749;47.850;9.002;2022-12-20T10:51:16;36.30;;;15.83;;
67965;SDS011;54749;47.850;9.002;2022-12-20T10:53:53;31.67;;;14.75;;
67965;SDS011;54749;47.850;9.002;2022-12-20T10:56:24;36.13;;;15.70;;
67965;SDS011;54749;47.850;9.002;2022-12-20T10:59:00;41.00;;;18.75;;
67965;SDS011;54749;47.850;9.002;2022-12-20T11:01:50;36.15;;;15.82;;
67965;SDS011;54749;47.850;9.002;2022-12-20T11:04:29;30.87;;;14.60;;
67965;SDS011;54749;47.850;9.002;2022-12-20T11:06:59;29.75;;;12.50;;
67965;SDS011;54749;47.850;9.002;2022-12-20T11:09:33;27.92;;;13.30;;
67965;SDS011;54749;47.850;9.002;2022-12-20T11:14:40;28.45;;;12.65;;
67965;SDS011;54749;47.850;9.002;2022-12-20T11:25:32;28.65;;;12.50;;
67965;SDS011;54749;47.850;9.002;2022-12-20T11:30:48;33.50;;;13.57;;
67965;SDS011;54749;47.850;9.002;2022-12-20T11:36:29;30.10;;;12.25;;
67965;SDS011;54749;47.850;9.002;2022-12-20T11:44:53;37.03;;;14.70;;
67965;SDS011;54749;47.850;9.002;2022-12-20T11:56:11;29.63;;;13.65;;
67965;SDS011;54749;47.850;9.002;2022-12-20T12:01:33;27.63;;;11.77;;
67965;SDS011;54749;47.850;9.002;2022-12-20T12:04:19;29.90;;;13.73;;
67965;SDS011;54749;47.850;9.002;2022-12-20T12:06:52;27.75;;;12.48;;
67965;SDS011;54749;47.850;9.002;2022-12-20T12:12:28;28.00;;;11.75;;
67965;SDS011;54749;47.850;9.002;2022-12-20T12:26:09;28.25;;;13.07;;
67965;SDS011;54749;47.850;9.002;2022-12-20T12:28:38;26.80;;;12.87;;
67965;SDS011;54749;47.850;9.002;2022-12-20T12:31:08;29.27;;;13.07;;
67965;SDS011;54749;47.850;9.002;2022-12-20T12:33:41;29.50;;;13.52;;
67965;SDS011;54749;47.850;9.002;2022-12-20T12:42:47;37.20;;;16.13;;
67965;SDS011;54749;47.850;9.002;2022-12-20T12:45:42;28.08;;;14.32;;
67965;SDS011;54749;47.850;9.002;2022-12-20T12:48:26;116.55;;;48.22;;
67965;SDS011;54749;47.850;9.002;2022-12-20T12:51:04;239.77;;;94.82;;
67965;SDS011;54749;47.850;9.002;2022-12-20T12:53:34;189.98;;;50.25;;
67965;SDS011;54749;47.850;9.002;2022-12-20T13:01:54;27.35;;;13.95;;
67965;SDS011;54749;47.850;9.002;2022-12-20T13:20:25;20.90;;;10.00;;
67965;SDS011;54749;47.850;9.002;2022-12-20T13:33:40;19.00;;;8.85;;
67965;SDS011;54749;47.850;9.002;2022-12-20T13:46:48;24.30;;;10.45;;
67965;SDS011;54749;47.850;9.002;2022-12-20T13:49:25;23.85;;;10.85;;
67965;SDS011;54749;47.850;9.002;2022-12-20T13:54:41;20.67;;;9.00;;
67965;SDS011;54749;47.850;9.002;2022-12-20T13:57:15;17.83;;;8.70;;
67965;SDS011;54749;47.850;9.002;2022-12-20T13:59:47;18.00;;;8.38;;
67965;SDS011;54749;47.850;9.002;2022-12-20T14:02:20;22.02;;;9.55;;
67965;SDS011;54749;47.850;9.002;2022-12-20T14:05:01;20.00;;;9.60;;
67965;SDS011;54749;47.850;9.002;2022-12-20T14:07:32;22.40;;;9.68;;
67965;SDS011;54749;47.850;9.002;2022-12-20T14:10:00;27.00;;;11.33;;
67965;SDS011;54749;47.850;9.002;2022-12-20T14:12:29;23.38;;;10.20;;
67965;SDS011;54749;47.850;9.002;2022-12-20T14:15:17;22.25;;;10.65;;
67965;SDS011;54749;47.850;9.002;2022-12-20T14:17:47;20.40;;;9.75;;
67965;SDS011;54749;47.850;9.002;2022-12-20T14:20:14;29.80;;;11.38;;
67965;SDS011;54749;47.850;9.002;2022-12-20T14:22:52;26.60;;;12.03;;
67965;SDS011;54749;47.850;9.002;2022-12-20T14:28:03;27.55;;;12.60;;
67965;SDS011;54749;47.850;9.002;2022-12-20T14:30:33;28.45;;;13.73;;
67965;SDS011;54749;47.850;9.002;2022-12-20T14:33:27;29.75;;;13.30;;
67965;SDS011;54749;47.850;9.002;2022-12-20T14:35:56;25.83;;;10.77;;
67965;SDS011;54749;47.850;9.002;2022-12-20T14:38:33;22.55;;;10.02;;
67965;SDS011;54749;47.850;9.002;2022-12-20T14:41:00;26.50;;;11.15;;
67965;SDS011;54749;47.850;9.002;2022-12-20T14:43:33;22.63;;;10.07;;
67965;SDS011;54749;47.850;9.002;2022-12-20T14:46:07;19.15;;;8.90;;
67965;SDS011;54749;47.850;9.002;2022-12-20T14:48:43;24.13;;;9.70;;
67965;SDS011;54749;47.850;9.002;2022-12-20T14:51:11;23.85;;;10.07;;
67965;SDS011;54749;47.850;9.002;2022-12-20T14:53:45;19.98;;;8.98;;
67965;SDS011;54749;47.850;9.002;2022-12-20T14:56:13;21.33;;;10.35;;
67965;SDS011;54749;47.850;9.002;2022-12-20T14:58:44;21.58;;;9.38;;
67965;SDS011;54749;47.850;9.002;2022-12-20T15:03:51;21.67;;;9.63;;
67965;SDS011;54749;47.850;9.002;2022-12-20T15:09:03;22.13;;;9.15;;
67965;SDS011;54749;47.850;9.002;2022-12-20T15:11:33;21.77;;;9.80;;
67965;SDS011;54749;47.850;9.002;2022-12-20T15:14:09;20.50;;;8.97;;
67965;SDS011;54749;47.850;9.002;2022-12-20T15:16:50;19.77;;;8.88;;
67965;SDS011;54749;47.850;9.002;2022-12-20T15:19:18;23.52;;;9.63;;
67965;SDS011;54749;47.850;9.002;2022-12-20T15:21:45;20.35;;;9.40;;
67965;SDS011;54749;47.850;9.002;2022-12-20T15:24:14;20.80;;;8.80;;
67965;SDS011;54749;47.850;9.002;2022-12-20T15:26:46;21.20;;;8.73;;
67965;SDS011;54749;47.850;9.002;2022-12-20T15:29:15;21.90;;;9.50;;
67965;SDS011;54749;47.850;9.002;2022-12-20T15:31:43;20.50;;;9.60;;
67965;SDS011;54749;47.850;9.002;2022-12-20T15:37:03;24.85;;;10.77;;
67965;SDS011;54749;47.850;9.002;2022-12-20T15:39:31;27.33;;;11.47;;
67965;SDS011;54749;47.850;9.002;2022-12-20T15:41:59;20.88;;;9.73;;
67965;SDS011;54749;47.850;9.002;2022-12-20T15:44:29;20.17;;;9.00;;
67965;SDS011;54749;47.850;9.002;2022-12-20T15:46:57;21.60;;;8.98;;
67965;SDS011;54749;47.850;9.002;2022-12-20T15:49:26;24.48;;;9.82;;
67965;SDS011;54749;47.850;9.002;2022-12-20T15:51:55;20.10;;;8.83;;
67965;SDS011;54749;47.850;9.002;2022-12-20T15:54:29;19.98;;;9.23;;
67965;SDS011;54749;47.850;9.002;2022-12-20T15:57:00;22.83;;;9.63;;
67965;SDS011;54749;47.850;9.002;2022-12-20T15:59:34;23.52;;;9.98;;
67965;SDS011;54749;47.850;9.002;2022-12-20T16:02:23;20.90;;;9.52;;
67965;SDS011;54749;47.850;9.002;2022-12-20T16:04:53;20.98;;;9.52;;
67965;SDS011;54749;47.850;9.002;2022-12-20T16:07:21;22.27;;;9.85;;
67965;SDS011;54749;47.850;9.002;2022-12-20T16:09:49;26.73;;;11.53;;
67965;SDS011;54749;47.850;9.002;2022-12-20T16:12:17;26.77;;;11.15;;
67965;SDS011;54749;47.850;9.002;2022-12-20T16:14:48;29.65;;;11.55;;
67965;SDS011;54749;47.850;9.002;2022-12-20T16:17:15;24.33;;;10.73;;
67965;SDS011;54749;47.850;9.002;2022-12-20T16:19:43;26.40;;;11.27;;
67965;SDS011;54749;47.850;9.002;2022-12-20T16:22:28;24.97;;;11.50;;
67965;SDS011;54749;47.850;9.002;2022-12-20T16:24:55;31.05;;;12.60;;
67965;SDS011;54749;47.850;9.002;2022-12-20T16:27:22;27.88;;;12.25;;
67965;SDS011;54749;47.850;9.002;2022-12-20T16:29:50;29.52;;;12.05;;
67965;SDS011;54749;47.850;9.002;2022-12-20T16:32:18;29.15;;;12.90;;
67965;SDS011;54749;47.850;9.002;2022-12-20T16:34:48;30.17;;;12.87;;
67965;SDS011;54749;47.850;9.002;2022-12-20T16:37:15;33.95;;;13.68;;
67965;SDS011;54749;47.850;9.002;2022-12-20T16:39:43;41.00;;;18.02;;
67965;SDS011;54749;47.850;9.002;2022-12-20T16:42:14;43.88;;;20.38;;
67965;SDS011;54749;47.850;9.002;2022-12-20T16:44:43;37.58;;;18.05;;
67965;SDS011;54749;47.850;9.002;2022-12-20T16:47:11;45.97;;;21.30;;
67965;SDS011;54749;47.850;9.002;2022-12-20T16:49:40;41.03;;;18.85;;
67965;SDS011;54749;47.850;9.002;2022-12-20T16:52:18;38.60;;;18.52;;
67965;SDS011;54749;47.850;9.002;2022-12-20T16:54:48;46.75;;;21.23;;
67965;SDS011;54749;47.850;9.002;2022-12-20T16:57:15;45.92;;;19.60;;
67965;SDS011;54749;47.850;9.002;2022-12-20T16:59:42;41.90;;;17.43;;
67965;SDS011;54749;47.850;9.002;2022-12-20T17:04:54;74.20;;;29.48;;
67965;SDS011;54749;47.850;9.002;2022-12-20T17:07:21;73.07;;;29.33;;
67965;SDS011;54749;47.850;9.002;2022-12-20T17:09:48;74.50;;;29.77;;
67965;SDS011;54749;47.850;9.002;2022-12-20T17:12:29;62.93;;;24.87;;
67965;SDS011;54749;47.850;9.002;2022-12-20T17:14:57;54.20;;;24.08;;
67965;SDS011;54749;47.850;9.002;2022-12-20T17:17:24;62.63;;;28.25;;
67965;SDS011;54749;47.850;9.002;2022-12-20T17:19:51;71.82;;;29.80;;